sensor_id;sensor_type;location;lat;lon;timestamp;P1;durP1;ratioP1;P2;durP2;ratioP2
49051;SDS011;34866;48.670;18.260;2023-07-31T00:00:39;6.40;;;3.22;;
49051;SDS011;34866;48.670;18.260;2023-07-31T00:03:05;8.77;;;2.67;;
49051;SDS011;34866;48.670;18.260;2023-07-31T00:05:30;8.18;;;2.35;;
49051;SDS011;34866;48.670;18.260;2023-07-31T00:07:56;8.13;;;2.83;;
49051;SDS011;34866;48.670;18.260;2023-07-31T00:10:22;7.05;;;2.70;;
49051;SDS011;34866;48.670;18.260;2023-07-31T00:12:47;6.90;;;2.67;;
49051;SDS011;34866;48.670;18.260;2023-07-31T00:15:13;5.28;;;2.42;;
49051;SDS011;34866;48.670;18.260;2023-07-31T00:17:40;6.05;;;2.25;;
49051;SDS011;34866;48.670;18.260;2023-07-31T00:20:06;8.25;;;2.88;;
49051;SDS011;34866;48.670;18.260;2023-07-31T00:22:32;7.53;;;2.00;;
49051;SDS011;34866;48.670;18.260;2023-07-31T00:24:58;5.53;;;3.10;;
49051;SDS011;34866;48.670;18.260;2023-07-31T00:27:24;4.20;;;2.08;;
49051;SDS011;34866;48.670;18.260;2023-07-31T00:29:50;4.43;;;1.88;;
49051;SDS011;34866;48.670;18.260;2023-07-31T00:32:16;7.43;;;2.03;;
49051;SDS011;34866;48.670;18.260;2023-07-31T00:34:42;10.02;;;2.55;;
49051;SDS011;34866;48.670;18.260;2023-07-31T00:37:07;9.23;;;2.63;;
49051;SDS011;34866;48.670;18.260;2023-07-31T00:39:33;5.32;;;2.28;;
49051;SDS011;34866;48.670;18.260;2023-07-31T00:42:00;5.05;;;2.80;;
49051;SDS011;34866;48.670;18.260;2023-07-31T00:44:26;7.28;;;2.15;;
49051;SDS011;34866;48.670;18.260;2023-07-31T00:46:52;7.25;;;2.15;;
49051;SDS011;34866;48.670;18.260;2023-07-31T00:49:20;4.28;;;1.88;;
49051;SDS011;34866;48.670;18.260;2023-07-31T00:51:49;4.80;;;2.53;;
49051;SDS011;34866;48.670;18.260;2023-07-31T00:54:15;7.57;;;2.13;;
49051;SDS011;34866;48.670;18.260;2023-07-31T00:56:41;10.05;;;2.30;;
49051;SDS011;34866;48.670;18.260;2023-07-31T00:59:09;6.53;;;2.33;;
49051;SDS011;34866;48.670;18.260;2023-07-31T01:01:35;4.47;;;2.38;;
49051;SDS011;34866;48.670;18.260;2023-07-31T01:04:01;4.13;;;2.00;;
49051;SDS011;34866;48.670;18.260;2023-07-31T01:06:35;5.45;;;2.53;;
49051;SDS011;34866;48.670;18.260;2023-07-31T01:11:48;5.38;;;2.17;;
49051;SDS011;34866;48.670;18.260;2023-07-31T01:14:18;7.22;;;3.05;;
49051;SDS011;34866;48.670;18.260;2023-07-31T01:16:43;9.48;;;2.88;;
49051;SDS011;34866;48.670;18.260;2023-07-31T01:19:09;4.50;;;2.28;;
49051;SDS011;34866;48.670;18.260;2023-07-31T01:21:48;6.88;;;2.30;;
49051;SDS011;34866;48.670;18.260;2023-07-31T01:24:28;8.50;;;2.35;;
49051;SDS011;34866;48.670;18.260;2023-07-31T01:27:09;5.93;;;2.33;;
49051;SDS011;34866;48.670;18.260;2023-07-31T01:29:56;4.65;;;2.00;;
49051;SDS011;34866;48.670;18.260;2023-07-31T01:32:24;7.50;;;2.60;;
49051;SDS011;34866;48.670;18.260;2023-07-31T01:34:52;7.93;;;2.60;;
49051;SDS011;34866;48.670;18.260;2023-07-31T01:37:19;8.40;;;3.55;;
49051;SDS011;34866;48.670;18.260;2023-07-31T01:39:45;6.25;;;3.25;;
49051;SDS011;34866;48.670;18.260;2023-07-31T01:42:10;5.05;;;2.42;;
49051;SDS011;34866;48.670;18.260;2023-07-31T01:44:36;13.57;;;2.90;;
49051;SDS011;34866;48.670;18.260;2023-07-31T01:47:02;21.63;;;3.75;;
49051;SDS011;34866;48.670;18.260;2023-07-31T01:49:27;6.15;;;2.47;;
49051;SDS011;34866;48.670;18.260;2023-07-31T01:51:53;9.57;;;2.45;;
49051;SDS011;34866;48.670;18.260;2023-07-31T01:54:18;15.63;;;2.47;;
49051;SDS011;34866;48.670;18.260;2023-07-31T01:56:44;10.40;;;2.38;;
49051;SDS011;34866;48.670;18.260;2023-07-31T01:59:10;6.25;;;1.60;;
49051;SDS011;34866;48.670;18.260;2023-07-31T02:01:35;10.27;;;2.15;;
49051;SDS011;34866;48.670;18.260;2023-07-31T02:04:02;5.35;;;2.42;;
49051;SDS011;34866;48.670;18.260;2023-07-31T02:06:29;17.08;;;2.45;;
49051;SDS011;34866;48.670;18.260;2023-07-31T02:08:55;11.00;;;2.80;;
49051;SDS011;34866;48.670;18.260;2023-07-31T02:11:21;12.73;;;1.90;;
49051;SDS011;34866;48.670;18.260;2023-07-31T02:13:47;4.55;;;2.13;;
49051;SDS011;34866;48.670;18.260;2023-07-31T02:16:12;4.97;;;2.58;;
49051;SDS011;34866;48.670;18.260;2023-07-31T02:18:39;10.93;;;2.75;;
49051;SDS011;34866;48.670;18.260;2023-07-31T02:21:05;7.75;;;2.75;;
49051;SDS011;34866;48.670;18.260;2023-07-31T02:23:31;7.78;;;2.50;;
49051;SDS011;34866;48.670;18.260;2023-07-31T02:25:56;9.18;;;2.13;;
49051;SDS011;34866;48.670;18.260;2023-07-31T02:28:25;19.42;;;2.80;;
49051;SDS011;34866;48.670;18.260;2023-07-31T02:30:51;14.95;;;2.40;;
49051;SDS011;34866;48.670;18.260;2023-07-31T02:33:17;16.10;;;2.65;;
49051;SDS011;34866;48.670;18.260;2023-07-31T02:35:43;10.23;;;2.85;;
49051;SDS011;34866;48.670;18.260;2023-07-31T02:38:08;20.15;;;3.47;;
49051;SDS011;34866;48.670;18.260;2023-07-31T02:40:34;23.38;;;3.97;;
49051;SDS011;34866;48.670;18.260;2023-07-31T02:43:00;8.80;;;3.47;;
49051;SDS011;34866;48.670;18.260;2023-07-31T02:45:25;37.30;;;5.03;;
49051;SDS011;34866;48.670;18.260;2023-07-31T02:47:51;14.55;;;3.20;;
49051;SDS011;34866;48.670;18.260;2023-07-31T02:50:16;9.30;;;3.83;;
49051;SDS011;34866;48.670;18.260;2023-07-31T02:52:43;20.20;;;3.40;;
49051;SDS011;34866;48.670;18.260;2023-07-31T02:55:09;14.15;;;3.38;;
49051;SDS011;34866;48.670;18.260;2023-07-31T02:57:35;30.10;;;3.75;;
49051;SDS011;34866;48.670;18.260;2023-07-31T03:00:01;21.75;;;4.13;;
49051;SDS011;34866;48.670;18.260;2023-07-31T03:02:30;9.23;;;3.25;;
49051;SDS011;34866;48.670;18.260;2023-07-31T03:04:56;18.55;;;4.20;;
49051;SDS011;34866;48.670;18.260;2023-07-31T03:07:22;17.38;;;3.65;;
49051;SDS011;34866;48.670;18.260;2023-07-31T03:09:47;20.05;;;3.97;;
49051;SDS011;34866;48.670;18.260;2023-07-31T03:12:13;10.65;;;3.38;;
49051;SDS011;34866;48.670;18.260;2023-07-31T03:14:39;8.15;;;2.92;;
49051;SDS011;34866;48.670;18.260;2023-07-31T03:17:04;6.15;;;3.38;;
49051;SDS011;34866;48.670;18.260;2023-07-31T03:19:31;9.05;;;2.35;;
49051;SDS011;34866;48.670;18.260;2023-07-31T03:21:57;5.78;;;2.33;;
49051;SDS011;34866;48.670;18.260;2023-07-31T03:24:26;11.80;;;2.60;;
49051;SDS011;34866;48.670;18.260;2023-07-31T03:26:56;15.55;;;2.58;;
49051;SDS011;34866;48.670;18.260;2023-07-31T03:29:22;13.55;;;2.28;;
49051;SDS011;34866;48.670;18.260;2023-07-31T03:31:48;15.75;;;2.55;;
49051;SDS011;34866;48.670;18.260;2023-07-31T03:34:13;5.03;;;2.60;;
49051;SDS011;34866;48.670;18.260;2023-07-31T03:36:39;59.45;;;3.85;;
49051;SDS011;34866;48.670;18.260;2023-07-31T03:39:04;27.92;;;3.03;;
49051;SDS011;34866;48.670;18.260;2023-07-31T03:41:30;5.05;;;2.30;;
49051;SDS011;34866;48.670;18.260;2023-07-31T03:43:56;4.70;;;2.25;;
49051;SDS011;34866;48.670;18.260;2023-07-31T03:46:22;4.50;;;2.33;;
49051;SDS011;34866;48.670;18.260;2023-07-31T03:48:48;4.57;;;2.33;;
49051;SDS011;34866;48.670;18.260;2023-07-31T03:51:17;9.80;;;2.80;;
49051;SDS011;34866;48.670;18.260;2023-07-31T03:53:43;7.43;;;2.88;;
49051;SDS011;34866;48.670;18.260;2023-07-31T03:56:11;8.43;;;2.70;;
49051;SDS011;34866;48.670;18.260;2023-07-31T03:58:37;5.18;;;2.75;;
49051;SDS011;34866;48.670;18.260;2023-07-31T04:01:31;5.10;;;2.40;;
49051;SDS011;34866;48.670;18.260;2023-07-31T04:03:57;4.47;;;2.30;;
49051;SDS011;34866;48.670;18.260;2023-07-31T04:06:38;5.63;;;3.00;;
49051;SDS011;34866;48.670;18.260;2023-07-31T04:09:04;9.32;;;2.65;;
49051;SDS011;34866;48.670;18.260;2023-07-31T04:11:34;5.40;;;2.42;;
49051;SDS011;34866;48.670;18.260;2023-07-31T04:13:59;4.88;;;2.75;;
49051;SDS011;34866;48.670;18.260;2023-07-31T04:16:26;7.32;;;2.97;;
49051;SDS011;34866;48.670;18.260;2023-07-31T04:18:55;6.10;;;2.45;;
49051;SDS011;34866;48.670;18.260;2023-07-31T04:21:26;4.95;;;2.90;;
49051;SDS011;34866;48.670;18.260;2023-07-31T04:23:53;10.30;;;2.40;;
49051;SDS011;34866;48.670;18.260;2023-07-31T04:26:22;5.88;;;2.83;;
49051;SDS011;34866;48.670;18.260;2023-07-31T04:28:48;6.97;;;2.85;;
49051;SDS011;34866;48.670;18.260;2023-07-31T04:31:33;9.80;;;2.60;;
49051;SDS011;34866;48.670;18.260;2023-07-31T04:33:59;7.72;;;2.58;;
49051;SDS011;34866;48.670;18.260;2023-07-31T04:36:28;5.35;;;2.70;;
49051;SDS011;34866;48.670;18.260;2023-07-31T04:38:55;5.40;;;2.60;;
49051;SDS011;34866;48.670;18.260;2023-07-31T04:41:21;4.57;;;2.20;;
49051;SDS011;34866;48.670;18.260;2023-07-31T04:43:48;4.97;;;2.50;;
49051;SDS011;34866;48.670;18.260;2023-07-31T04:46:17;3.45;;;1.90;;
49051;SDS011;34866;48.670;18.260;2023-07-31T04:49:03;4.38;;;2.00;;
49051;SDS011;34866;48.670;18.260;2023-07-31T04:51:35;3.70;;;2.28;;
49051;SDS011;34866;48.670;18.260;2023-07-31T04:54:05;5.30;;;2.90;;
49051;SDS011;34866;48.670;18.260;2023-07-31T04:56:33;4.82;;;2.47;;
49051;SDS011;34866;48.670;18.260;2023-07-31T04:59:04;4.07;;;2.08;;
49051;SDS011;34866;48.670;18.260;2023-07-31T05:01:30;4.72;;;2.90;;
49051;SDS011;34866;48.670;18.260;2023-07-31T05:03:55;4.93;;;2.83;;
49051;SDS011;34866;48.670;18.260;2023-07-31T05:06:21;5.88;;;2.90;;
49051;SDS011;34866;48.670;18.260;2023-07-31T05:08:47;4.82;;;2.50;;
49051;SDS011;34866;48.670;18.260;2023-07-31T05:11:12;4.68;;;2.58;;
49051;SDS011;34866;48.670;18.260;2023-07-31T05:13:44;5.00;;;2.70;;
49051;SDS011;34866;48.670;18.260;2023-07-31T05:16:12;6.32;;;2.38;;
49051;SDS011;34866;48.670;18.260;2023-07-31T05:18:38;4.20;;;2.22;;
49051;SDS011;34866;48.670;18.260;2023-07-31T05:21:06;5.47;;;1.90;;
49051;SDS011;34866;48.670;18.260;2023-07-31T05:23:32;5.93;;;2.35;;
49051;SDS011;34866;48.670;18.260;2023-07-31T05:26:07;6.22;;;2.78;;
49051;SDS011;34866;48.670;18.260;2023-07-31T05:28:36;5.32;;;2.38;;
49051;SDS011;34866;48.670;18.260;2023-07-31T05:31:02;4.07;;;2.05;;
49051;SDS011;34866;48.670;18.260;2023-07-31T05:33:29;4.32;;;1.88;;
49051;SDS011;34866;48.670;18.260;2023-07-31T05:35:55;3.95;;;1.90;;
49051;SDS011;34866;48.670;18.260;2023-07-31T05:38:21;4.78;;;1.50;;
49051;SDS011;34866;48.670;18.260;2023-07-31T05:40:47;4.05;;;2.13;;
49051;SDS011;34866;48.670;18.260;2023-07-31T05:43:13;4.35;;;1.65;;
49051;SDS011;34866;48.670;18.260;2023-07-31T05:45:42;3.88;;;1.70;;
49051;SDS011;34866;48.670;18.260;2023-07-31T05:48:08;3.25;;;1.55;;
49051;SDS011;34866;48.670;18.260;2023-07-31T05:50:34;4.38;;;1.55;;
49051;SDS011;34866;48.670;18.260;2023-07-31T05:53:00;3.15;;;1.40;;
49051;SDS011;34866;48.670;18.260;2023-07-31T05:55:25;5.25;;;2.20;;
49051;SDS011;34866;48.670;18.260;2023-07-31T05:57:54;3.80;;;1.55;;
49051;SDS011;34866;48.670;18.260;2023-07-31T06:00:20;6.13;;;1.75;;
49051;SDS011;34866;48.670;18.260;2023-07-31T06:02:46;4.07;;;1.40;;
49051;SDS011;34866;48.670;18.260;2023-07-31T06:05:12;3.10;;;1.75;;
49051;SDS011;34866;48.670;18.260;2023-07-31T06:07:38;9.63;;;2.47;;
49051;SDS011;34866;48.670;18.260;2023-07-31T06:10:04;4.78;;;1.70;;
49051;SDS011;34866;48.670;18.260;2023-07-31T06:12:34;16.95;;;2.10;;
49051;SDS011;34866;48.670;18.260;2023-07-31T06:15:00;4.82;;;1.80;;
49051;SDS011;34866;48.670;18.260;2023-07-31T06:17:28;3.83;;;1.52;;
49051;SDS011;34866;48.670;18.260;2023-07-31T06:19:54;4.32;;;1.70;;
49051;SDS011;34866;48.670;18.260;2023-07-31T06:22:21;4.95;;;1.60;;
49051;SDS011;34866;48.670;18.260;2023-07-31T06:24:46;3.67;;;1.42;;
49051;SDS011;34866;48.670;18.260;2023-07-31T06:27:12;8.15;;;1.80;;
49051;SDS011;34866;48.670;18.260;2023-07-31T06:29:39;4.15;;;1.85;;
49051;SDS011;34866;48.670;18.260;2023-07-31T06:32:05;5.20;;;1.83;;
49051;SDS011;34866;48.670;18.260;2023-07-31T06:34:31;3.22;;;1.63;;
49051;SDS011;34866;48.670;18.260;2023-07-31T06:36:56;4.72;;;1.50;;
49051;SDS011;34866;48.670;18.260;2023-07-31T06:39:22;2.80;;;1.30;;
49051;SDS011;34866;48.670;18.260;2023-07-31T06:41:48;4.25;;;1.63;;
49051;SDS011;34866;48.670;18.260;2023-07-31T06:44:15;3.35;;;1.50;;
49051;SDS011;34866;48.670;18.260;2023-07-31T06:46:42;5.97;;;1.92;;
49051;SDS011;34866;48.670;18.260;2023-07-31T06:49:08;2.75;;;1.20;;
49051;SDS011;34866;48.670;18.260;2023-07-31T06:51:36;5.75;;;1.65;;
49051;SDS011;34866;48.670;18.260;2023-07-31T06:54:07;2.88;;;1.40;;
49051;SDS011;34866;48.670;18.260;2023-07-31T06:56:33;7.20;;;1.85;;
49051;SDS011;34866;48.670;18.260;2023-07-31T06:58:59;2.45;;;1.25;;
49051;SDS011;34866;48.670;18.260;2023-07-31T07:01:37;6.93;;;1.52;;
49051;SDS011;34866;48.670;18.260;2023-07-31T07:04:04;3.95;;;1.63;;
49051;SDS011;34866;48.670;18.260;2023-07-31T07:06:29;3.60;;;1.75;;
49051;SDS011;34866;48.670;18.260;2023-07-31T07:08:55;6.00;;;1.65;;
49051;SDS011;34866;48.670;18.260;2023-07-31T07:11:21;3.53;;;1.70;;
49051;SDS011;34866;48.670;18.260;2023-07-31T07:13:46;2.78;;;1.42;;
49051;SDS011;34866;48.670;18.260;2023-07-31T07:16:14;5.07;;;1.63;;
49051;SDS011;34866;48.670;18.260;2023-07-31T07:18:39;5.72;;;1.70;;
49051;SDS011;34866;48.670;18.260;2023-07-31T07:21:05;4.53;;;1.55;;
49051;SDS011;34866;48.670;18.260;2023-07-31T07:23:31;3.67;;;1.73;;
49051;SDS011;34866;48.670;18.260;2023-07-31T07:25:56;3.58;;;1.52;;
49051;SDS011;34866;48.670;18.260;2023-07-31T07:28:28;3.78;;;1.65;;
49051;SDS011;34866;48.670;18.260;2023-07-31T07:31:03;3.70;;;2.05;;
49051;SDS011;34866;48.670;18.260;2023-07-31T07:33:29;5.13;;;1.58;;
49051;SDS011;34866;48.670;18.260;2023-07-31T07:36:02;7.13;;;1.58;;
49051;SDS011;34866;48.670;18.260;2023-07-31T07:38:36;5.93;;;1.55;;
49051;SDS011;34866;48.670;18.260;2023-07-31T07:41:09;29.48;;;1.88;;
49051;SDS011;34866;48.670;18.260;2023-07-31T07:43:37;4.07;;;1.40;;
49051;SDS011;34866;48.670;18.260;2023-07-31T07:46:13;7.97;;;1.77;;
49051;SDS011;34866;48.670;18.260;2023-07-31T07:48:40;4.45;;;1.50;;
49051;SDS011;34866;48.670;18.260;2023-07-31T07:51:07;6.65;;;1.83;;
49051;SDS011;34866;48.670;18.260;2023-07-31T07:53:36;3.90;;;1.83;;
49051;SDS011;34866;48.670;18.260;2023-07-31T07:56:02;6.68;;;1.48;;
49051;SDS011;34866;48.670;18.260;2023-07-31T07:58:30;4.65;;;1.55;;
49051;SDS011;34866;48.670;18.260;2023-07-31T08:00:56;5.50;;;1.50;;
49051;SDS011;34866;48.670;18.260;2023-07-31T08:03:26;3.65;;;1.48;;
49051;SDS011;34866;48.670;18.260;2023-07-31T08:06:03;5.13;;;1.60;;
49051;SDS011;34866;48.670;18.260;2023-07-31T08:08:38;4.57;;;2.10;;
49051;SDS011;34866;48.670;18.260;2023-07-31T08:11:06;3.50;;;1.50;;
49051;SDS011;34866;48.670;18.260;2023-07-31T08:13:39;3.60;;;1.58;;
49051;SDS011;34866;48.670;18.260;2023-07-31T08:16:06;6.97;;;1.75;;
49051;SDS011;34866;48.670;18.260;2023-07-31T08:18:37;5.20;;;1.40;;
49051;SDS011;34866;48.670;18.260;2023-07-31T08:21:06;7.00;;;1.80;;
49051;SDS011;34866;48.670;18.260;2023-07-31T08:23:34;3.65;;;1.70;;
49051;SDS011;34866;48.670;18.260;2023-07-31T08:26:03;4.93;;;1.50;;
49051;SDS011;34866;48.670;18.260;2023-07-31T08:28:39;4.00;;;1.70;;
49051;SDS011;34866;48.670;18.260;2023-07-31T08:31:07;2.83;;;1.45;;
49051;SDS011;34866;48.670;18.260;2023-07-31T08:33:33;3.55;;;1.75;;
49051;SDS011;34866;48.670;18.260;2023-07-31T08:36:06;4.82;;;1.40;;
49051;SDS011;34866;48.670;18.260;2023-07-31T08:38:38;2.92;;;1.38;;
49051;SDS011;34866;48.670;18.260;2023-07-31T08:41:05;4.72;;;1.70;;
49051;SDS011;34866;48.670;18.260;2023-07-31T08:43:34;4.53;;;1.70;;
49051;SDS011;34866;48.670;18.260;2023-07-31T08:46:03;7.15;;;1.60;;
49051;SDS011;34866;48.670;18.260;2023-07-31T08:48:31;7.60;;;1.80;;
49051;SDS011;34866;48.670;18.260;2023-07-31T08:51:03;7.63;;;1.92;;
49051;SDS011;34866;48.670;18.260;2023-07-31T08:53:35;3.08;;;1.45;;
49051;SDS011;34866;48.670;18.260;2023-07-31T08:56:46;4.00;;;1.60;;
49051;SDS011;34866;48.670;18.260;2023-07-31T08:59:18;2.45;;;1.33;;
49051;SDS011;34866;48.670;18.260;2023-07-31T09:01:48;4.75;;;1.50;;
49051;SDS011;34866;48.670;18.260;2023-07-31T09:04:23;3.90;;;1.63;;
49051;SDS011;34866;48.670;18.260;2023-07-31T09:06:53;5.03;;;1.77;;
49051;SDS011;34866;48.670;18.260;2023-07-31T09:09:28;2.88;;;1.27;;
49051;SDS011;34866;48.670;18.260;2023-07-31T09:11:59;7.15;;;1.70;;
49051;SDS011;34866;48.670;18.260;2023-07-31T09:14:26;2.72;;;1.45;;
49051;SDS011;34866;48.670;18.260;2023-07-31T09:16:55;4.43;;;1.50;;
49051;SDS011;34866;48.670;18.260;2023-07-31T09:19:48;4.07;;;1.70;;
49051;SDS011;34866;48.670;18.260;2023-07-31T09:22:17;3.15;;;1.33;;
49051;SDS011;34866;48.670;18.260;2023-07-31T09:25:21;13.25;;;1.50;;
49051;SDS011;34866;48.670;18.260;2023-07-31T09:27:47;4.30;;;1.40;;
49051;SDS011;34866;48.670;18.260;2023-07-31T09:30:25;3.80;;;1.40;;
49051;SDS011;34866;48.670;18.260;2023-07-31T09:32:51;3.00;;;1.52;;
49051;SDS011;34866;48.670;18.260;2023-07-31T09:35:32;6.47;;;1.30;;
49051;SDS011;34866;48.670;18.260;2023-07-31T09:38:00;4.45;;;1.92;;
49051;SDS011;34866;48.670;18.260;2023-07-31T09:40:32;2.40;;;1.17;;
49051;SDS011;34866;48.670;18.260;2023-07-31T09:42:59;5.40;;;1.65;;
49051;SDS011;34866;48.670;18.260;2023-07-31T09:45:29;4.40;;;1.67;;
49051;SDS011;34866;48.670;18.260;2023-07-31T09:47:58;3.33;;;1.42;;
49051;SDS011;34866;48.670;18.260;2023-07-31T09:50:24;7.18;;;1.70;;
49051;SDS011;34866;48.670;18.260;2023-07-31T09:52:52;3.33;;;1.40;;
49051;SDS011;34866;48.670;18.260;2023-07-31T09:55:18;4.25;;;1.67;;
49051;SDS011;34866;48.670;18.260;2023-07-31T09:57:48;3.55;;;1.30;;
49051;SDS011;34866;48.670;18.260;2023-07-31T10:00:35;4.32;;;1.55;;
49051;SDS011;34866;48.670;18.260;2023-07-31T10:03:01;3.47;;;1.40;;
49051;SDS011;34866;48.670;18.260;2023-07-31T10:05:39;3.20;;;1.40;;
49051;SDS011;34866;48.670;18.260;2023-07-31T10:08:09;6.72;;;1.30;;
49051;SDS011;34866;48.670;18.260;2023-07-31T10:10:37;4.50;;;1.25;;
49051;SDS011;34866;48.670;18.260;2023-07-31T10:13:07;5.90;;;1.50;;
49051;SDS011;34866;48.670;18.260;2023-07-31T10:15:33;5.40;;;1.45;;
49051;SDS011;34866;48.670;18.260;2023-07-31T10:18:00;3.65;;;1.30;;
49051;SDS011;34866;48.670;18.260;2023-07-31T10:20:26;5.47;;;1.27;;
49051;SDS011;34866;48.670;18.260;2023-07-31T10:22:58;7.55;;;2.83;;
49051;SDS011;34866;48.670;18.260;2023-07-31T10:25:26;3.42;;;1.40;;
49051;SDS011;34866;48.670;18.260;2023-07-31T10:27:52;15.73;;;1.98;;
49051;SDS011;34866;48.670;18.260;2023-07-31T10:30:20;4.25;;;1.63;;
49051;SDS011;34866;48.670;18.260;2023-07-31T10:32:50;5.53;;;1.55;;
49051;SDS011;34866;48.670;18.260;2023-07-31T10:35:17;4.70;;;1.58;;
49051;SDS011;34866;48.670;18.260;2023-07-31T10:37:44;2.92;;;1.35;;
49051;SDS011;34866;48.670;18.260;2023-07-31T10:40:11;3.70;;;1.20;;
49051;SDS011;34866;48.670;18.260;2023-07-31T10:42:46;3.53;;;1.58;;
49051;SDS011;34866;48.670;18.260;2023-07-31T10:45:36;3.20;;;1.20;;
49051;SDS011;34866;48.670;18.260;2023-07-31T10:48:12;3.03;;;1.17;;
49051;SDS011;34866;48.670;18.260;2023-07-31T10:50:46;4.00;;;1.25;;
49051;SDS011;34866;48.670;18.260;2023-07-31T10:55:52;5.28;;;1.20;;
49051;SDS011;34866;48.670;18.260;2023-07-31T10:58:22;4.53;;;1.40;;
49051;SDS011;34866;48.670;18.260;2023-07-31T11:00:48;2.55;;;1.33;;
49051;SDS011;34866;48.670;18.260;2023-07-31T11:03:15;3.00;;;1.15;;
49051;SDS011;34866;48.670;18.260;2023-07-31T11:06:01;2.63;;;1.17;;
49051;SDS011;34866;48.670;18.260;2023-07-31T11:08:30;4.57;;;1.20;;
49051;SDS011;34866;48.670;18.260;2023-07-31T11:15:54;4.55;;;0.90;;
49051;SDS011;34866;48.670;18.260;2023-07-31T11:18:20;3.60;;;1.17;;
49051;SDS011;34866;48.670;18.260;2023-07-31T11:20:53;2.67;;;0.82;;
49051;SDS011;34866;48.670;18.260;2023-07-31T11:23:19;4.55;;;1.15;;
49051;SDS011;34866;48.670;18.260;2023-07-31T11:25:46;3.92;;;1.10;;
49051;SDS011;34866;48.670;18.260;2023-07-31T11:28:13;3.58;;;1.10;;
49051;SDS011;34866;48.670;18.260;2023-07-31T11:30:39;5.13;;;1.00;;
49051;SDS011;34866;48.670;18.260;2023-07-31T11:33:28;4.78;;;1.00;;
49051;SDS011;34866;48.670;18.260;2023-07-31T11:35:55;2.80;;;0.90;;
49051;SDS011;34866;48.670;18.260;2023-07-31T11:39:06;3.78;;;1.10;;
49051;SDS011;34866;48.670;18.260;2023-07-31T11:42:10;3.83;;;1.25;;
49051;SDS011;34866;48.670;18.260;2023-07-31T11:44:39;3.80;;;1.15;;
49051;SDS011;34866;48.670;18.260;2023-07-31T11:47:25;3.78;;;1.13;;
49051;SDS011;34866;48.670;18.260;2023-07-31T11:49:51;2.50;;;0.82;;
49051;SDS011;34866;48.670;18.260;2023-07-31T11:52:18;8.95;;;1.00;;
49051;SDS011;34866;48.670;18.260;2023-07-31T11:54:50;4.88;;;1.10;;
49051;SDS011;34866;48.670;18.260;2023-07-31T11:57:16;7.97;;;1.08;;
49051;SDS011;34866;48.670;18.260;2023-07-31T12:00:04;2.22;;;0.85;;
49051;SDS011;34866;48.670;18.260;2023-07-31T12:02:31;4.30;;;1.33;;
49051;SDS011;34866;48.670;18.260;2023-07-31T12:05:00;3.45;;;0.98;;
49051;SDS011;34866;48.670;18.260;2023-07-31T12:07:27;2.95;;;0.85;;
49051;SDS011;34866;48.670;18.260;2023-07-31T12:09:54;8.30;;;1.23;;
49051;SDS011;34866;48.670;18.260;2023-07-31T12:13:02;3.28;;;0.85;;
49051;SDS011;34866;48.670;18.260;2023-07-31T12:15:57;2.25;;;1.00;;
49051;SDS011;34866;48.670;18.260;2023-07-31T12:18:25;5.82;;;0.82;;
49051;SDS011;34866;48.670;18.260;2023-07-31T12:20:55;8.25;;;1.58;;
49051;SDS011;34866;48.670;18.260;2023-07-31T12:23:25;2.65;;;0.90;;
49051;SDS011;34866;48.670;18.260;2023-07-31T12:26:11;6.20;;;0.80;;
49051;SDS011;34866;48.670;18.260;2023-07-31T12:28:42;4.90;;;1.10;;
49051;SDS011;34866;48.670;18.260;2023-07-31T12:31:10;2.65;;;0.93;;
49051;SDS011;34866;48.670;18.260;2023-07-31T12:33:40;6.28;;;1.00;;
49051;SDS011;34866;48.670;18.260;2023-07-31T12:36:07;7.13;;;0.98;;
49051;SDS011;34866;48.670;18.260;2023-07-31T12:38:45;2.00;;;0.73;;
49051;SDS011;34866;48.670;18.260;2023-07-31T12:41:11;2.72;;;0.90;;
49051;SDS011;34866;48.670;18.260;2023-07-31T12:43:38;2.80;;;0.80;;
49051;SDS011;34866;48.670;18.260;2023-07-31T12:46:05;3.08;;;1.00;;
49051;SDS011;34866;48.670;18.260;2023-07-31T12:48:36;4.03;;;0.60;;
49051;SDS011;34866;48.670;18.260;2023-07-31T12:51:03;2.15;;;0.80;;
49051;SDS011;34866;48.670;18.260;2023-07-31T12:53:32;3.03;;;1.17;;
49051;SDS011;34866;48.670;18.260;2023-07-31T12:55:58;4.60;;;0.70;;
49051;SDS011;34866;48.670;18.260;2023-07-31T12:58:24;2.03;;;0.90;;
49051;SDS011;34866;48.670;18.260;2023-07-31T13:00:50;2.58;;;0.90;;
49051;SDS011;34866;48.670;18.260;2023-07-31T13:03:17;1.40;;;0.63;;
49051;SDS011;34866;48.670;18.260;2023-07-31T13:05:44;2.67;;;0.85;;
49051;SDS011;34866;48.670;18.260;2023-07-31T13:08:10;2.10;;;0.82;;
49051;SDS011;34866;48.670;18.260;2023-07-31T13:10:41;2.85;;;1.00;;
49051;SDS011;34866;48.670;18.260;2023-07-31T13:13:08;5.80;;;1.00;;
49051;SDS011;34866;48.670;18.260;2023-07-31T13:15:34;5.75;;;1.17;;
49051;SDS011;34866;48.670;18.260;2023-07-31T13:18:00;1.52;;;0.60;;
49051;SDS011;34866;48.670;18.260;2023-07-31T13:20:26;4.50;;;1.08;;
49051;SDS011;34866;48.670;18.260;2023-07-31T13:22:51;2.90;;;0.98;;
49051;SDS011;34866;48.670;18.260;2023-07-31T13:25:18;2.95;;;0.80;;
49051;SDS011;34866;48.670;18.260;2023-07-31T13:27:44;3.83;;;1.42;;
49051;SDS011;34866;48.670;18.260;2023-07-31T13:30:10;3.05;;;0.95;;
49051;SDS011;34866;48.670;18.260;2023-07-31T13:33:00;2.92;;;0.82;;
49051;SDS011;34866;48.670;18.260;2023-07-31T13:35:48;5.10;;;1.20;;
49051;SDS011;34866;48.670;18.260;2023-07-31T13:38:36;1.30;;;0.60;;
49051;SDS011;34866;48.670;18.260;2023-07-31T13:41:02;2.30;;;0.70;;
49051;SDS011;34866;48.670;18.260;2023-07-31T13:43:28;2.47;;;0.85;;
49051;SDS011;34866;48.670;18.260;2023-07-31T13:45:54;2.45;;;0.70;;
49051;SDS011;34866;48.670;18.260;2023-07-31T13:48:46;1.42;;;0.60;;
49051;SDS011;34866;48.670;18.260;2023-07-31T13:51:11;1.58;;;0.65;;
49051;SDS011;34866;48.670;18.260;2023-07-31T13:53:37;1.95;;;0.70;;
49051;SDS011;34866;48.670;18.260;2023-07-31T13:56:03;3.83;;;1.02;;
49051;SDS011;34866;48.670;18.260;2023-07-31T13:58:28;2.15;;;0.85;;
49051;SDS011;34866;48.670;18.260;2023-07-31T14:00:57;6.22;;;0.90;;
49051;SDS011;34866;48.670;18.260;2023-07-31T14:03:23;2.78;;;0.82;;
49051;SDS011;34866;48.670;18.260;2023-07-31T14:05:48;1.35;;;0.60;;
49051;SDS011;34866;48.670;18.260;2023-07-31T14:08:14;4.07;;;0.93;;
49051;SDS011;34866;48.670;18.260;2023-07-31T14:11:00;4.65;;;0.93;;
49051;SDS011;34866;48.670;18.260;2023-07-31T14:13:25;3.75;;;1.00;;
49051;SDS011;34866;48.670;18.260;2023-07-31T14:15:51;1.67;;;0.70;;
49051;SDS011;34866;48.670;18.260;2023-07-31T14:18:18;1.88;;;0.80;;
49051;SDS011;34866;48.670;18.260;2023-07-31T14:20:44;2.05;;;0.80;;
49051;SDS011;34866;48.670;18.260;2023-07-31T14:23:09;5.30;;;0.95;;
49051;SDS011;34866;48.670;18.260;2023-07-31T14:25:35;3.42;;;0.88;;
49051;SDS011;34866;48.670;18.260;2023-07-31T14:28:04;4.40;;;0.70;;
49051;SDS011;34866;48.670;18.260;2023-07-31T14:30:30;2.78;;;0.98;;
49051;SDS011;34866;48.670;18.260;2023-07-31T14:33:02;4.32;;;0.73;;
49051;SDS011;34866;48.670;18.260;2023-07-31T14:35:28;9.75;;;1.00;;
49051;SDS011;34866;48.670;18.260;2023-07-31T14:37:53;6.57;;;0.90;;
49051;SDS011;34866;48.670;18.260;2023-07-31T14:40:42;3.17;;;0.90;;
49051;SDS011;34866;48.670;18.260;2023-07-31T14:43:10;12.73;;;1.80;;
49051;SDS011;34866;48.670;18.260;2023-07-31T14:45:36;4.00;;;0.90;;
49051;SDS011;34866;48.670;18.260;2023-07-31T14:48:07;3.45;;;1.10;;
49051;SDS011;34866;48.670;18.260;2023-07-31T14:51:00;2.75;;;1.00;;
49051;SDS011;34866;48.670;18.260;2023-07-31T14:53:26;3.95;;;0.70;;
49051;SDS011;34866;48.670;18.260;2023-07-31T14:55:51;5.82;;;1.13;;